2022年7月6日

时间 代码 天气 温度 能见度 天花板 METAR/SPECI
7:20 下午
L
64 °F 0 mi - 290° 290° 8 kt METAR ETWM 061720Z AUTO 29008KT //// // ////// 18/09 Q1022 ///
6:20 下午
L
64 °F 0 mi - 270° 270° 4 kt METAR ETWM 061620Z AUTO 27004KT //// // ////// 18/08 Q1022 ///
5:20 下午
L
66 °F 0 mi - 250° 250° 6 kt METAR ETWM 061520Z AUTO 25006KT //// // ////// 19/08 Q1023 ///
4:20 下午
L
66 °F 0 mi - 250° 250° 6 kt METAR ETWM 061420Z AUTO 25006KT //// // ////// 19/08 Q1023 ///
3:20 下午
L
66 °F 0 mi - 270° 270° 6 kt METAR ETWM 061320Z AUTO 27006KT //// // ////// 19/08 Q1023 ///
2:20 下午
V
66 °F 6¼ mi+ 22.000 ft 280° 280° 6 kt METAR ETWM 061220Z 28006KT 9999 FEW041 BKN220 19/08 Q1023 BLU+
1:20 下午
V
66 °F 6¼ mi+ 22.000 ft 250° 250° 6 kt METAR ETWM 061120Z 25006KT 9999 FEW037 BKN220 19/09 Q1024 BLU+
12:20 下午
V
64 °F 6¼ mi+ 22.000 ft 290° 290° 8 kt METAR ETWM 061020Z 29008KT 9999 FEW034 SCT060 BKN220 18/08 Q1024 BLU+
11:20 上午
V
63 °F 6¼ mi+ 22.000 ft 280° 280° 6 kt METAR ETWM 060920Z 28006KT 9999 FEW027 SCT059 BKN220 17/09 Q1024 BLU+
10:20 上午
V
63 °F 6¼ mi+ 6.000 ft 300° 300° 6 kt METAR ETWM 060820Z 30006KT 9999 FEW026 BKN060 17/09 Q1024 BLU
9:20 上午
V
61 °F 6¼ mi+ 6.200 ft 280° 280° 5 kt METAR ETWM 060720Z 28005KT 9999 FEW025 BKN062 16/09 Q1024 BLU
8:20 上午
V
61 °F 6¼ mi+ - 270° 270° 5 kt METAR ETWM 060620Z 27005KT 9999 FEW020 16/10 Q1024 BLU+
7:20 上午
V
57 °F 6¼ mi+ 6.100 ft Var Var 3 kt METAR ETWM 060520Z VRB03KT 9999 FEW020 BKN061 14/11 Q1024 BLU
6:20 上午
V
54 °F 6¼ mi+ 5.600 ft 240° 240° 4 kt METAR ETWM 060420Z 24004KT 9999 FEW020 BKN056 12/10 Q1024 BLU
5:20 上午
L
54 °F 0 mi - 240° 240° 2 kt METAR ETWM 060320Z AUTO 24002KT //// // ////// 12/10 Q1024 ///
4:20 上午
L
54 °F 0 mi - Var Var 2 kt METAR ETWM 060220Z AUTO VRB02KT //// // ////// 12/10 Q1023 ///
3:20 上午
L
54 °F 0 mi - 260° 260° 2 kt METAR ETWM 060120Z AUTO 26002KT //// // ////// 12/10 Q1024 ///
2:20 上午
L
52 °F 0 mi - Var Var 2 kt METAR ETWM 060020Z AUTO VRB02KT //// // ////// 11/09 Q1024 ///
1:20 上午
L
54 °F 0 mi - Var Var 2 kt METAR ETWM 052320Z AUTO VRB02KT //// // ////// 12/09 Q1023 ///
12:20 上午
L
55 °F 0 mi - 280° 280° 2 kt METAR ETWM 052220Z AUTO 28002KT //// // ////// 13/10 Q1024 ///

2022年7月5日

时间 代码 天气 温度 能见度 天花板 METAR/SPECI
11:20 下午
L
57 °F 0 mi - 300° 300° 1 kt METAR ETWM 052120Z AUTO 30001KT //// // ////// 14/10 Q1023 ///
10:20 下午
L
57 °F 0 mi - 320° 320° 2 kt METAR ETWM 052020Z AUTO 32002KT //// // ////// 14/09 Q1023 ///
9:20 下午
L
63 °F 0 mi - 320° 320° 3 kt METAR ETWM 051920Z AUTO 32003KT //// // ////// 17/09 Q1022 ///
8:20 下午
L
64 °F 0 mi - 340° 340° 5 kt METAR ETWM 051820Z AUTO 34005KT //// // ////// 18/09 Q1022 ///
7:20 下午
L
66 °F 0 mi - 320° 320° 4 kt METAR ETWM 051720Z AUTO 32004KT //// // ////// 19/09 Q1022 ///
6:20 下午
L
66 °F 0 mi - 330° 330° 5 kt METAR ETWM 051620Z AUTO 33005KT //// // ////// 19/10 Q1022 ///
5:20 下午
L
68 °F 0 mi - 320° 320° 7 kt METAR ETWM 051520Z AUTO 32007KT //// // ////// 20/09 Q1022 ///
4:20 下午
L
68 °F 0 mi - 270° 270° 7 kt METAR ETWM 051420Z AUTO 27007KT //// // ////// 20/09 Q1021 ///
3:20 下午
L
66 °F 0 mi - 280° 280° 5 kt METAR ETWM 051320Z AUTO 28005KT //// // ////// 19/09 Q1022 ///
2:20 下午
V
68 °F 6¼ mi+ 8.800 ft 290° 290° 6 kt METAR ETWM 051220Z 29006KT 9999 FEW040 BKN088 20/10 Q1021 BLU
1:20 下午
V
68 °F 6¼ mi+ 8.200 ft 280° 280° 8 kt METAR ETWM 051120Z 28008KT 9999 FEW040 BKN082 20/08 Q1021 BLU
12:20 下午
V
66 °F 6¼ mi+ 6.600 ft 270° 270° 8 kt METAR ETWM 051020Z 27008KT 9999 FEW036 BKN066 19/09 Q1022 BLU
11:20 上午
V
66 °F 6¼ mi+ - 280° 280° 6 kt METAR ETWM 050920Z 28006KT 9999 FEW036 SCT060 19/09 Q1022 BLU+
10:20 上午
V
66 °F 6¼ mi+ - 240° 240° 8 kt METAR ETWM 050820Z 24008KT 9999 FEW030 19/10 Q1021 BLU+
9:20 上午
V
64 °F 6¼ mi+ - 290° 290° 6 kt METAR ETWM 050720Z 29006KT 9999 FEW024 18/11 Q1021 BLU+
8:20 上午
V
61 °F 6¼ mi+ - 230° 230° 4 kt METAR ETWM 050620Z 23004KT 9999 FEW060 16/11 Q1021 BLU+
7:20 上午
V
57 °F 6¼ mi+ - 220° 220° 3 kt METAR ETWM 050520Z 22003KT 9999 FEW065 14/11 Q1021 BLU+
6:20 上午
V
50 °F 6¼ mi+ - 230° 230° 3 kt METAR ETWM 050420Z 23003KT 9999 MIFG FEW065 10/10 Q1021 BLU+
5:20 上午
L
46 °F 0 mi - 240° 240° 1 kt METAR ETWM 050320Z AUTO 24001KT //// // ////// 08/08 Q1020 ///
4:20 上午
L
48 °F 0 mi - 230° 230° 2 kt METAR ETWM 050220Z AUTO 23002KT //// // ////// 09/09 Q1020 ///
3:20 上午
L
50 °F 0 mi - 220° 220° 2 kt METAR ETWM 050120Z AUTO 22002KT //// // ////// 10/09 Q1020 ///
2:20 上午
L
50 °F 0 mi - Var Var 1 kt METAR ETWM 050020Z AUTO VRB01KT //// // ////// 10/09 Q1020 ///
1:20 上午
L
54 °F 0 mi - Var Var 1 kt METAR ETWM 042320Z AUTO VRB01KT //// // ////// 12/10 Q1020 ///
12:20 上午
L
54 °F 0 mi - 320° 320° 2 kt METAR ETWM 042220Z AUTO 32002KT //// // ////// 12/10 Q1020 ///

2022年7月4日

时间 代码 天气 温度 能见度 天花板 METAR/SPECI
11:20 下午
L
55 °F 0 mi - Var Var 1 kt METAR ETWM 042120Z AUTO VRB01KT //// // ////// 13/10 Q1020 ///
10:20 下午
L
59 °F 0 mi - 320° 320° 2 kt METAR ETWM 042020Z AUTO 32002KT //// // ////// 15/10 Q1020 ///
9:20 下午
L
64 °F 0 mi - 320° 320° 4 kt METAR ETWM 041920Z AUTO 32004KT //// // ////// 18/09 Q1019 ///
8:20 下午
L
68 °F 0 mi - 300° 300° 6 kt METAR ETWM 041820Z AUTO 30006KT //// // ////// 20/08 Q1019 ///
7:20 下午
L
70 °F 0 mi - 280° 280° 6 kt METAR ETWM 041720Z AUTO 28006KT //// // ////// 21/08 Q1018 ///
6:20 下午
L
70 °F 0 mi - 280° 280° 9 kt METAR ETWM 041620Z AUTO 28009KT //// // ////// 21/08 Q1018 ///
5:20 下午
L
72 °F 0 mi - 280° 280° 8 kt METAR ETWM 041520Z AUTO 28008KT //// // ////// 22/10 Q1018 ///
较旧的数据

下载我们的应用程序

在您的手机和平板电脑上轻松访问所有航空天气。
有许多网站上没有的功能,如离线支持和个人机场列表。

Studio Eveline

Benalmádena
España

我们和第三方通过cookies跟踪您在我们网站上的上网行为。如果您继续,我们认为您同意我们的cookie政策。 了解更多